Arvilla, North Dakota
Current Conditions -  °F | °C
As of 10:08 AM on Thursday 30 Oct 2014 (Local Time) from KRDR Reporting Station
Overcast Overcast  
Wind Chill: 28°   Ceiling: 1400
Heat Index: 37°   Visibility: 10mi
Dew Point: 34°   Wind: 16mph
Humidity: 87%   Direction: 10°N
Pressure: 30.25"   Gusts: 21mph
Location:  47.92°N, 97.49°W
Report Text: KRDR 301508Z AUTO 01014G18KT 10SM BKN014 OVC025 03/01 A3025 RMK AO2 CIG 014V025 BKN V SCT
Loading
Personal Weather Stations






























Interactive Weather Map New forecast layout! Learn more

10-Day Weather Forecast

Advertisements
Track Severe Weather on mobile